Time;durP1;ratioP1;P1;durP2;ratioP2;P2;SDS_P1;SDS_P2;PMS_P1;PMS_P2;Temp;Humidity;BMP_temperature;BMP_pressure;BME280_temperature;BME280_humidity;BME280_pressure;Samples;Min_cycle;Max_cycle;Signal;HPM_P1;HPM_P2
2023/07/26 00:02:16;;;;;;;18.20;11.30;;;;;;;14.41;84.33;101019.50;5054009;28;20113;-76
2023/07/26 00:04:42;;;;;;;18.15;11.20;;;;;;;14.49;84.75;101027.03;5053807;28;20024;-76
2023/07/26 00:07:07;;;;;;;18.75;11.20;;;;;;;14.41;85.26;101033.44;5052420;28;20056;-76
2023/07/26 00:09:33;;;;;;;17.88;11.93;;;;;;;14.47;84.86;101034.09;5053857;28;20056;-75
2023/07/26 00:11:58;;;;;;;19.45;12.32;;;;;;;14.50;84.66;101023.09;5054088;28;20344;-75
2023/07/26 00:14:23;;;;;;;18.95;11.85;;;;;;;14.53;84.34;101031.97;5053902;28;20064;-76
2023/07/26 00:16:49;;;;;;;19.58;11.68;;;;;;;14.53;84.73;101032.75;5054568;28;20121;-75
2023/07/26 00:19:16;;;;;;;19.35;12.00;;;;;;;14.53;84.58;101032.75;5056049;28;20353;-75
2023/07/26 00:21:41;;;;;;;18.40;11.73;;;;;;;14.48;84.83;101030.16;5056442;28;20383;-75
2023/07/26 00:24:06;;;;;;;17.92;12.15;;;;;;;14.47;84.78;101025.75;5053629;28;20070;-76
2023/07/26 00:26:32;;;;;;;17.88;11.30;;;;;;;14.41;85.07;101027.03;5053525;28;20029;-75
2023/07/26 00:28:57;;;;;;;17.65;11.43;;;;;;;14.37;85.45;101024.09;5053227;28;20538;-76
2023/07/26 00:31:23;;;;;;;18.50;11.00;;;;;;;14.36;85.10;101019.66;5054423;28;20033;-75
2023/07/26 00:33:48;;;;;;;18.48;11.15;;;;;;;14.27;84.76;101027.19;5054400;28;20435;-76
2023/07/26 00:36:14;;;;;;;18.40;12.20;;;;;;;14.20;85.39;101022.94;5053036;28;20037;-76
2023/07/26 00:38:39;;;;;;;18.33;11.52;;;;;;;14.20;85.70;101024.94;5053087;28;20037;-76
2023/07/26 00:41:06;;;;;;;18.30;11.77;;;;;;;14.13;85.83;101019.00;5052860;28;20025;-75
2023/07/26 00:43:32;;;;;;;19.13;11.20;;;;;;;14.07;86.80;101029.50;5052953;28;20029;-76
2023/07/26 00:45:58;;;;;;;18.25;11.90;;;;;;;14.01;86.88;101022.44;5052834;28;20399;-76
2023/07/26 00:48:24;;;;;;;18.55;11.60;;;;;;;14.00;86.37;101024.41;5052719;28;20036;-75
2023/07/26 00:50:50;;;;;;;17.98;12.10;;;;;;;13.96;86.32;101022.59;5052533;28;20544;-76
2023/07/26 00:53:16;;;;;;;17.27;11.38;;;;;;;13.91;86.60;101019.97;5051164;28;20114;-75
2023/07/26 00:55:44;;;;;;;18.92;11.88;;;;;;;13.91;86.91;101022.75;5052611;28;20044;-76
2023/07/26 00:58:11;;;;;;;17.92;11.05;;;;;;;13.86;86.60;101010.66;5053484;28;20199;-76
2023/07/26 01:00:40;;;;;;;17.27;11.27;;;;;;;13.83;87.14;101019.63;5052487;28;20037;-76
2023/07/26 01:03:06;;;;;;;18.30;11.55;;;;;;;13.76;86.72;101013.75;5052353;28;20036;-76
2023/07/26 01:05:39;;;;;;;19.42;12.48;;;;;;;13.73;87.27;101015.22;5052405;28;20041;-76
2023/07/26 01:08:07;;;;;;;19.30;12.00;;;;;;;13.66;87.56;101023.19;5052189;28;20365;-76
2023/07/26 01:10:49;;;;;;;18.17;11.13;;;;;;;13.62;88.15;101022.22;5052280;28;20508;-76
2023/07/26 01:13:26;;;;;;;18.20;11.60;;;;;;;13.51;89.01;101024.44;5052000;28;20069;-76
2023/07/26 01:15:52;;;;;;;17.80;10.90;;;;;;;13.41;90.13;101025.56;5051979;28;20052;-76
2023/07/26 01:18:17;;;;;;;18.08;11.05;;;;;;;13.32;91.07;101030.25;5052108;28;20090;-76
2023/07/26 01:20:43;;;;;;;18.48;11.82;;;;;;;13.26;91.35;101023.19;5052002;28;20036;-76
2023/07/26 01:23:09;;;;;;;18.42;11.57;;;;;;;13.26;91.76;101031.53;5052016;28;20048;-76
2023/07/26 01:25:35;;;;;;;17.58;12.07;;;;;;;13.25;92.29;101021.56;5051884;28;20028;-76
2023/07/26 01:28:00;;;;;;;18.63;11.93;;;;;;;13.25;92.60;101021.56;5051569;28;20056;-76
2023/07/26 01:30:30;;;;;;;18.58;11.18;;;;;;;13.25;93.22;101016.81;5051346;28;20021;-76
2023/07/26 01:32:59;;;;;;;18.30;11.45;;;;;;;13.23;93.41;101021.03;5051651;28;20025;-76
2023/07/26 01:35:28;;;;;;;19.75;13.00;;;;;;;13.22;93.40;101020.25;5051860;28;20166;-76
2023/07/26 01:37:54;;;;;;;19.65;12.10;;;;;;;13.21;94.11;101023.31;5050309;28;20560;-76
2023/07/26 01:40:21;;;;;;;19.15;12.15;;;;;;;13.26;94.01;101031.53;5050161;28;20068;-76
2023/07/26 01:42:47;;;;;;;20.40;12.60;;;;;;;13.26;93.93;101029.56;5051571;28;20028;-76
2023/07/26 01:45:12;;;;;;;18.00;12.23;;;;;;;13.29;93.28;101022.53;5051567;28;20074;-76
2023/07/26 01:47:38;;;;;;;18.55;11.90;;;;;;;13.31;93.71;101016.69;5051903;28;20543;-76
2023/07/26 01:50:04;;;;;;;19.20;12.20;;;;;;;13.36;93.83;101022.06;5051781;28;20495;-76
2023/07/26 01:52:29;;;;;;;19.25;12.02;;;;;;;13.43;92.71;101022.44;5051540;28;20025;-76
2023/07/26 01:54:54;;;;;;;18.65;12.02;;;;;;;13.49;91.55;101031.47;5051375;28;20390;-76
2023/07/26 01:57:25;;;;;;;18.83;11.75;;;;;;;13.58;91.06;101023.97;5051346;28;20111;-76
2023/07/26 01:59:51;;;;;;;18.35;11.73;;;;;;;13.64;90.28;101022.72;5051350;28;20040;-75
2023/07/26 02:02:17;;;;;;;19.40;12.00;;;;;;;13.66;89.81;101025.16;5051307;28;20472;-75
2023/07/26 02:04:43;;;;;;;20.52;12.88;;;;;;;13.66;89.74;101031.53;5051268;28;20047;-75
2023/07/26 02:07:08;;;;;;;18.58;12.13;;;;;;;13.69;89.77;101028.09;5051212;28;20044;-75
2023/07/26 02:09:34;;;;;;;18.80;12.95;;;;;;;13.71;89.49;101030.56;5051365;28;20104;-75
2023/07/26 02:11:59;;;;;;;17.73;11.68;;;;;;;13.69;89.61;101035.63;5051200;28;20465;-75
2023/07/26 02:14:24;;;;;;;19.92;13.00;;;;;;;13.65;89.59;101024.31;5051169;28;20029;-75
2023/07/26 02:16:49;;;;;;;19.10;12.48;;;;;;;13.60;89.65;101027.25;5051171;28;20111;-75
2023/07/26 02:19:15;;;;;;;19.25;12.50;;;;;;;13.57;90.16;101016.78;5051140;28;20385;-75
2023/07/26 02:21:40;;;;;;;20.02;12.23;;;;;;;13.53;89.94;101018.59;5049843;28;20357;-75
2023/07/26 02:24:06;;;;;;;18.98;12.75;;;;;;;13.47;90.20;101014.28;5051178;28;20082;-75
2023/07/26 02:26:31;;;;;;;18.13;11.90;;;;;;;13.43;90.57;101016.09;5050985;28;20416;-75
2023/07/26 02:28:56;;;;;;;18.08;11.60;;;;;;;13.39;90.63;101024.25;5051071;28;20187;-76
2023/07/26 02:31:22;;;;;;;18.45;12.00;;;;;;;13.37;91.33;101015.38;5050844;28;20032;-75
2023/07/26 02:33:47;;;;;;;18.23;12.30;;;;;;;13.33;91.35;101012.44;5051084;28;20085;-75
2023/07/26 02:36:12;;;;;;;18.73;12.20;;;;;;;13.29;91.58;101008.63;5051061;28;20048;-74
2023/07/26 02:38:38;;;;;;;17.50;11.68;;;;;;;13.26;91.98;101009.31;5051054;28;20052;-75
2023/07/26 02:41:03;;;;;;;19.08;12.23;;;;;;;13.23;92.40;101012.72;5053430;28;20476;-76
2023/07/26 02:43:28;;;;;;;19.33;12.60;;;;;;;13.22;92.21;101003.56;5055081;28;20041;-76
2023/07/26 02:45:54;;;;;;;18.92;12.27;;;;;;;13.18;92.35;101002.56;5055013;28;20025;-76
2023/07/26 02:48:19;;;;;;;19.15;12.75;;;;;;;13.16;92.67;101009.59;5055086;28;20079;-76
2023/07/26 02:50:44;;;;;;;19.25;12.80;;;;;;;13.14;92.64;101006.31;5054951;28;20061;-76
2023/07/26 02:53:10;;;;;;;18.95;13.15;;;;;;;13.09;93.22;101012.81;5053390;28;20043;-76
2023/07/26 02:55:35;;;;;;;19.42;12.90;;;;;;;13.04;93.21;101007.38;5054808;28;20325;-75
2023/07/26 02:58:00;;;;;;;18.15;12.55;;;;;;;12.98;93.60;101001.16;5054678;28;20025;-76
2023/07/26 03:00:26;;;;;;;19.00;12.02;;;;;;;12.95;93.81;101004.56;5054766;28;20460;-76
2023/07/26 03:02:51;;;;;;;18.98;12.80;;;;;;;12.87;94.50;101006.16;5054716;28;20395;-75
2023/07/26 03:05:16;;;;;;;17.88;11.95;;;;;;;12.88;94.60;101013.34;5054549;28;20025;-76
2023/07/26 03:07:42;;;;;;;19.63;12.18;;;;;;;12.87;94.83;101005.34;5054544;28;20057;-75
2023/07/26 03:10:07;;;;;;;18.92;12.00;;;;;;;12.86;95.13;101017.59;5054404;28;20103;-75
2023/07/26 03:12:33;;;;;;;20.67;11.90;;;;;;;12.87;95.10;101014.47;5054400;28;20055;-75
2023/07/26 03:14:58;;;;;;;18.50;12.07;;;;;;;12.86;95.49;101029.50;5054370;28;20021;-75
2023/07/26 03:17:23;;;;;;;18.25;11.77;;;;;;;12.86;95.57;101035.06;5052964;28;20060;-75
2023/07/26 03:19:50;;;;;;;18.77;12.18;;;;;;;12.89;95.39;101026.09;5054273;28;20044;-76
2023/07/26 03:22:15;;;;;;;18.98;12.00;;;;;;;12.88;95.56;101035.56;5054262;28;20487;-76
2023/07/26 03:24:40;;;;;;;18.50;12.38;;;;;;;12.87;95.75;101033.13;5054138;28;20074;-76
2023/07/26 03:27:07;;;;;;;19.98;12.68;;;;;;;12.83;96.15;101026.53;5054181;28;20037;-75
2023/07/26 03:29:32;;;;;;;19.00;13.40;;;;;;;12.74;96.45;101021.75;5054207;28;20067;-76
2023/07/26 03:31:58;;;;;;;20.15;13.15;;;;;;;12.73;96.71;101028.44;5052660;28;20366;-76
2023/07/26 03:34:23;;;;;;;19.55;13.15;;;;;;;12.68;97.36;101023.03;5054234;28;20037;-75
2023/07/26 03:36:48;;;;;;;21.33;12.43;;;;;;;12.62;97.91;101025.13;5053994;28;20108;-76
2023/07/26 03:39:14;;;;;;;19.50;12.40;;;;;;;12.63;97.95;101026.75;5053921;28;20017;-75
2023/07/26 03:41:39;;;;;;;19.23;12.95;;;;;;;12.59;98.94;101025.72;5053771;28;20041;-75
2023/07/26 03:44:04;;;;;;;19.92;13.02;;;;;;;12.59;99.26;101024.94;5053821;28;20100;-75
2023/07/26 03:46:30;;;;;;;20.05;12.88;;;;;;;12.59;99.47;101024.94;5053745;28;20495;-76
2023/07/26 03:48:55;;;;;;;18.77;12.82;;;;;;;12.55;100.00;101026.69;5053576;28;20026;-75
2023/07/26 03:51:20;;;;;;;19.02;13.15;;;;;;;12.54;100.00;101025.03;5053100;28;20032;-75
2023/07/26 03:53:45;;;;;;;19.52;13.50;;;;;;;12.50;100.00;101022.06;5052956;28;20532;-75
2023/07/26 03:56:11;;;;;;;19.92;13.32;;;;;;;12.48;100.00;101022.41;5054090;28;20051;-75
2023/07/26 03:58:36;;;;;;;19.67;13.18;;;;;;;12.46;100.00;101024.66;5053528;28;20024;-75
2023/07/26 04:01:01;;;;;;;20.48;12.20;;;;;;;12.44;100.00;101026.13;5053425;28;20533;-75
2023/07/26 04:03:27;;;;;;;18.35;12.23;;;;;;;12.43;100.00;101030.03;5053321;28;20559;-75
2023/07/26 04:05:52;;;;;;;19.38;12.32;;;;;;;12.42;100.00;101034.75;5053306;28;20035;-76
2023/07/26 04:08:17;;;;;;;18.42;11.00;;;;;;;12.41;100.00;101023.97;5053141;28;20361;-76
2023/07/26 04:10:43;;;;;;;18.77;11.52;;;;;;;12.40;100.00;101025.09;5053270;28;20064;-76
2023/07/26 04:13:08;;;;;;;19.27;11.82;;;;;;;12.40;100.00;101028.72;5053067;28;20095;-76
2023/07/26 04:15:33;;;;;;;19.55;11.73;;;;;;;12.39;100.00;101023.44;5053127;28;20032;-75
2023/07/26 04:17:59;;;;;;;19.23;11.32;;;;;;;12.39;100.00;101024.28;5052941;28;20021;-76
2023/07/26 04:20:24;;;;;;;18.77;11.88;;;;;;;12.38;100.00;101027.34;5053042;28;20465;-75
2023/07/26 04:22:49;;;;;;;19.25;11.23;;;;;;;12.37;100.00;101031.28;5051545;28;20075;-75
2023/07/26 04:25:15;;;;;;;18.45;11.05;;;;;;;12.32;100.00;101021.13;5052943;28;20083;-75
2023/07/26 04:27:40;;;;;;;19.52;11.38;;;;;;;12.25;100.00;101017.94;5051278;28;20021;-75
2023/07/26 04:30:06;;;;;;;18.75;11.38;;;;;;;12.26;100.00;101025.97;5052875;28;20381;-75
2023/07/26 04:32:32;;;;;;;19.33;12.00;;;;;;;12.24;100.00;101028.25;5052733;28;20436;-75
2023/07/26 04:34:57;;;;;;;18.70;11.95;;;;;;;12.25;100.00;101027.13;5052658;28;20049;-76
2023/07/26 04:37:23;;;;;;;19.20;12.05;;;;;;;12.29;100.00;101032.84;5052657;28;20478;-75
2023/07/26 04:39:49;;;;;;;18.80;11.70;;;;;;;12.30;100.00;101024.22;5052584;28;20056;-75
2023/07/26 04:42:14;;;;;;;19.58;12.10;;;;;;;12.35;100.00;101028.00;5052523;28;20433;-76
2023/07/26 04:44:39;;;;;;;19.63;12.90;;;;;;;12.35;100.00;101033.56;5051032;28;20044;-76
2023/07/26 04:47:05;;;;;;;19.35;12.43;;;;;;;12.39;100.00;101027.06;5052365;28;20032;-76
2023/07/26 04:49:30;;;;;;;20.58;12.65;;;;;;;12.35;100.00;101036.34;5050887;28;20033;-75
2023/07/26 04:51:56;;;;;;;19.75;12.48;;;;;;;12.37;100.00;101040.41;5050930;28;20484;-75
2023/07/26 04:54:21;;;;;;;19.73;11.85;;;;;;;12.36;100.00;101035.19;5052291;28;20033;-75
2023/07/26 04:56:47;;;;;;;19.83;12.30;;;;;;;12.37;100.00;101036.84;5052278;28;20532;-76
2023/07/26 04:59:12;;;;;;;20.83;12.70;;;;;;;12.36;100.00;101038.78;5052103;28;20113;-76
2023/07/26 05:01:37;;;;;;;19.08;12.02;;;;;;;12.35;100.00;101039.09;5052322;28;20435;-75
2023/07/26 05:04:03;;;;;;;19.13;12.45;;;;;;;12.37;100.00;101034.06;5066490;28;20112;-75
2023/07/26 05:06:30;;;;;;;19.48;12.50;;;;;;;12.34;100.00;101035.50;5050756;28;20400;-75
2023/07/26 05:08:56;;;;;;;19.17;12.60;;;;;;;12.30;100.00;101034.50;5052142;28;20120;-76
2023/07/26 05:11:22;;;;;;;20.10;12.77;;;;;;;12.27;100.00;101030.41;5052050;28;20029;-75
2023/07/26 05:13:48;;;;;;;20.10;13.45;;;;;;;12.24;100.00;101030.19;5050635;28;20341;-76
2023/07/26 05:16:13;;;;;;;20.40;12.52;;;;;;;12.24;100.00;101031.00;5051901;28;20021;-75
2023/07/26 05:18:39;;;;;;;19.42;12.52;;;;;;;12.30;100.00;101026.97;5052007;28;20128;-75
2023/07/26 05:21:04;;;;;;;20.02;12.70;;;;;;;12.36;100.00;101036.00;5050399;28;20540;-75
2023/07/26 05:23:29;;;;;;;20.13;13.65;;;;;;;12.43;100.00;101027.25;5050497;28;20146;-75
2023/07/26 05:25:55;;;;;;;20.83;13.27;;;;;;;12.55;100.00;101032.22;5051738;28;20515;-76
2023/07/26 05:28:20;;;;;;;21.20;13.77;;;;;;;12.62;100.00;101032.59;5051529;28;20056;-75
2023/07/26 05:30:46;;;;;;;19.73;13.43;;;;;;;12.71;100.00;101032.69;5051783;28;20021;-76
2023/07/26 05:33:11;;;;;;;20.70;13.43;;;;;;;12.81;100.00;101032.41;5050214;28;20036;-76
2023/07/26 05:35:39;;;;;;;20.00;13.57;;;;;;;12.88;100.00;101029.19;5050113;28;20078;-75
2023/07/26 05:38:04;;;;;;;20.30;13.50;;;;;;;13.06;100.00;101030.09;5051422;28;20036;-74
2023/07/26 05:40:29;;;;;;;20.17;13.93;;;;;;;13.14;100.00;101032.09;5051509;28;20036;-75
2023/07/26 05:42:55;;;;;;;20.95;13.80;;;;;;;13.26;100.00;101023.19;5051361;28;20052;-75
2023/07/26 05:45:20;;;;;;;21.75;14.45;;;;;;;13.37;100.00;101032.06;5050187;28;20104;-75
2023/07/26 05:47:46;;;;;;;21.90;13.30;;;;;;;13.52;100.00;101033.63;5051335;28;20029;-75
2023/07/26 05:50:11;;;;;;;20.70;13.68;;;;;;;13.62;100.00;101026.94;5051366;28;20221;-75
2023/07/26 05:52:37;;;;;;;22.30;14.88;;;;;;;13.79;100.00;101031.72;5051322;28;20036;-75
2023/07/26 05:55:03;;;;;;;23.45;14.88;;;;;;;13.96;100.00;101040.09;5051333;28;20025;-75
2023/07/26 05:57:28;;;;;;;21.83;14.68;;;;;;;14.09;99.35;101037.50;5051343;28;20086;-75
2023/07/26 05:59:54;;;;;;;22.52;14.25;;;;;;;14.21;98.70;101037.69;5051250;28;20384;-75
2023/07/26 06:02:19;;;;;;;22.60;14.45;;;;;;;14.31;99.11;101036.53;5049815;28;20143;-75
2023/07/26 06:04:46;;;;;;;21.40;14.18;;;;;;;14.35;98.89;101043.91;5051049;28;20358;-75
2023/07/26 06:07:12;;;;;;;22.08;14.60;;;;;;;14.45;98.31;101042.75;5051173;28;20040;-76
2023/07/26 06:09:37;;;;;;;20.70;14.27;;;;;;;14.57;97.73;101053.25;5051176;28;20048;-75
2023/07/26 06:12:03;;;;;;;22.90;14.65;;;;;;;14.67;97.48;101054.88;5049509;28;20539;-75
2023/07/26 06:14:29;;;;;;;22.67;15.27;;;;;;;14.75;96.90;101059.63;5050992;28;20453;-75
2023/07/26 06:16:54;;;;;;;22.13;14.65;;;;;;;14.82;97.15;101059.13;5050913;28;20079;-76
2023/07/26 06:19:21;;;;;;;22.17;15.00;;;;;;;15.00;97.16;101061.88;5051173;28;20040;-75
2023/07/26 06:21:47;;;;;;;21.58;15.15;;;;;;;15.10;95.92;101064.31;5050862;28;20029;-76
2023/07/26 06:24:12;;;;;;;22.63;15.38;;;;;;;15.20;95.87;101072.31;5050946;28;20044;-75
2023/07/26 06:26:38;;;;;;;22.20;15.40;;;;;;;15.20;94.48;101071.53;5051135;28;20020;-75
2023/07/26 06:29:03;;;;;;;23.75;15.93;;;;;;;15.22;94.78;101078.41;5050859;28;20045;-75
2023/07/26 06:31:29;;;;;;;23.70;15.85;;;;;;;15.18;94.65;101080.19;5050750;28;20021;-75
2023/07/26 06:33:54;;;;;;;22.63;15.85;;;;;;;15.15;95.19;101083.66;5050917;28;20357;-75
2023/07/26 06:36:19;;;;;;;22.95;15.52;;;;;;;15.05;95.44;101086.81;5050815;28;20029;-75
2023/07/26 06:38:45;;;;;;;24.02;16.02;;;;;;;14.99;96.29;101097.28;5050677;28;20025;-75
2023/07/26 06:41:10;;;;;;;22.45;16.33;;;;;;;14.93;96.50;101099.44;5050845;28;20067;-76
2023/07/26 06:43:35;;;;;;;22.63;15.75;;;;;;;14.90;97.31;101097.28;5049311;28;20075;-75
2023/07/26 06:46:00;;;;;;;23.98;15.55;;;;;;;14.87;98.20;101100.75;5050759;28;20029;-75
2023/07/26 06:48:26;;;;;;;23.60;16.25;;;;;;;14.82;99.51;101104.53;5050837;28;20029;-75
2023/07/26 06:50:51;;;;;;;23.00;16.17;;;;;;;14.72;100.00;101104.03;5050724;28;20031;-75
2023/07/26 06:53:16;;;;;;;23.40;16.98;;;;;;;14.65;100.00;101110.06;5050606;28;20112;-75
2023/07/26 06:55:42;;;;;;;23.35;16.45;;;;;;;14.54;100.00;101103.19;5050729;28;20025;-75
2023/07/26 06:58:07;;;;;;;24.55;17.92;;;;;;;14.41;100.00;101103.00;5050682;28;20381;-75
2023/07/26 07:00:32;;;;;;;23.92;17.15;;;;;;;14.35;100.00;101105.13;5050768;28;20124;-75
2023/07/26 07:02:59;;;;;;;23.08;16.92;;;;;;;14.30;100.00;101113.66;5050614;28;20051;-75
2023/07/26 07:05:28;;;;;;;23.85;17.73;;;;;;;14.27;100.00;101108.72;5050607;28;20029;-75
2023/07/26 07:07:53;;;;;;;24.10;17.35;;;;;;;14.29;100.00;101122.31;5050445;28;20032;-75
2023/07/26 07:10:19;;;;;;;23.85;17.40;;;;;;;14.26;100.00;101129.34;5050807;28;20025;-75
2023/07/26 07:12:45;;;;;;;25.00;17.98;;;;;;;14.24;100.00;101122.47;5050577;28;20039;-75
2023/07/26 07:15:10;;;;;;;26.13;18.52;;;;;;;14.23;100.00;101131.97;5050625;28;20024;-75
2023/07/26 07:17:36;;;;;;;24.70;17.67;;;;;;;14.21;100.00;101135.06;5049535;28;20082;-76
2023/07/26 07:20:02;;;;;;;25.35;17.92;;;;;;;14.20;100.00;101139.00;5050920;28;20036;-76
2023/07/26 07:22:27;;;;;;;24.00;17.45;;;;;;;14.18;100.00;101144.06;5050770;28;20064;-75
2023/07/26 07:24:53;;;;;;;25.05;18.70;;;;;;;14.08;100.00;101156.28;5050652;28;20024;-75
2023/07/26 07:27:19;;;;;;;25.25;18.35;;;;;;;14.04;100.00;101156.13;5051647;28;20392;-75
2023/07/26 07:29:44;;;;;;;25.17;18.55;;;;;;;14.02;100.00;101157.59;5053956;28;20049;-76
2023/07/26 07:32:09;;;;;;;24.27;18.65;;;;;;;14.05;100.00;101151.41;5052649;28;20032;-76
2023/07/26 07:34:35;;;;;;;25.52;18.20;;;;;;;14.03;100.00;101125.84;5054097;28;20025;-75
2023/07/26 07:37:00;;;;;;;23.88;18.05;;;;;;;14.08;100.00;101136.81;5052477;28;20078;-76
2023/07/26 07:39:25;;;;;;;24.00;17.08;;;;;;;14.20;100.00;101131.47;5053957;28;20104;-76
2023/07/26 07:41:51;;;;;;;23.95;18.05;;;;;;;14.35;100.00;101144.09;5054090;28;20048;-75
2023/07/26 07:44:16;;;;;;;23.48;17.52;;;;;;;14.48;100.00;101139.53;5054033;28;20025;-76
2023/07/26 07:46:44;;;;;;;24.92;17.75;;;;;;;14.61;100.00;101148.88;5053985;28;20033;-76
2023/07/26 07:49:09;;;;;;;24.63;17.98;;;;;;;14.77;100.00;101145.66;5053907;28;20029;-76
2023/07/26 07:51:35;;;;;;;24.00;17.20;;;;;;;14.86;100.00;101142.84;5053717;28;20128;-76
2023/07/26 07:54:00;;;;;;;23.20;16.77;;;;;;;14.88;100.00;101144.16;5053969;28;20056;-76
2023/07/26 07:56:25;;;;;;;23.55;17.77;;;;;;;14.98;100.00;101145.81;5053670;28;20481;-75
2023/07/26 07:58:51;;;;;;;24.65;17.77;;;;;;;15.03;100.00;101147.59;5053532;28;20033;-75
2023/07/26 08:01:16;;;;;;;25.15;18.35;;;;;;;15.10;100.00;101137.59;5053477;28;20079;-76
2023/07/26 08:03:41;;;;;;;25.38;18.67;;;;;;;15.20;100.00;101133.63;5052288;28;20025;-76
2023/07/26 08:06:07;;;;;;;26.50;18.63;;;;;;;15.17;100.00;101139.88;5053373;28;20469;-76
2023/07/26 08:08:32;;;;;;;23.70;18.17;;;;;;;15.11;100.00;101138.41;5053360;28;20060;-76
2023/07/26 08:10:57;;;;;;;26.50;20.23;;;;;;;15.16;100.00;101141.00;5053312;28;20195;-76
2023/07/26 08:13:23;;;;;;;25.88;19.17;;;;;;;15.19;100.00;101142.34;5053157;28;20158;-76
2023/07/26 08:15:48;;;;;;;25.80;20.77;;;;;;;15.21;100.00;101146.44;5053298;28;20124;-76
2023/07/26 08:18:13;;;;;;;26.30;20.40;;;;;;;15.22;100.00;101152.81;5051721;28;20118;-76
2023/07/26 08:20:39;;;;;;;26.10;20.30;;;;;;;15.24;100.00;101134.63;5053046;28;20047;-76
2023/07/26 08:23:04;;;;;;;25.75;19.17;;;;;;;15.35;100.00;101140.66;5053397;28;20128;-77
2023/07/26 08:25:30;;;;;;;25.48;19.35;;;;;;;15.45;100.00;101147.84;5052990;28;20079;-76
2023/07/26 08:27:56;;;;;;;26.95;20.60;;;;;;;15.60;100.00;101152.06;5052827;28;20036;-76
2023/07/26 08:30:21;;;;;;;26.77;19.80;;;;;;;15.72;100.00;101151.38;5052984;28;20020;-78
2023/07/26 08:32:47;;;;;;;26.15;20.05;;;;;;;15.77;100.00;101142.00;5052794;28;20037;-75
2023/07/26 08:35:12;;;;;;;26.25;19.77;;;;;;;15.92;100.00;101147.06;5052852;28;20068;-76
2023/07/26 08:37:37;;;;;;;25.73;19.88;;;;;;;15.96;100.00;101138.81;5052623;28;20028;-76
2023/07/26 08:40:03;;;;;;;25.05;19.52;;;;;;;16.03;100.00;101148.31;5051330;28;20032;-75
2023/07/26 08:42:28;;;;;;;25.00;18.83;;;;;;;16.12;100.00;101142.66;5052539;28;20035;-74
2023/07/26 08:44:54;;;;;;;26.65;19.33;;;;;;;16.23;100.00;101145.91;5052621;28;20051;-75
2023/07/26 08:47:22;;;;;;;25.13;19.45;;;;;;;16.34;100.00;101147.13;5052486;28;20204;-75
2023/07/26 08:49:49;;;;;;;27.98;19.77;;;;;;;16.47;100.00;101141.63;5052462;28;20021;-75
2023/07/26 08:52:17;;;;;;;25.33;18.98;;;;;;;16.64;100.00;101135.13;5052497;28;20028;-76
2023/07/26 08:54:44;;;;;;;24.58;19.15;;;;;;;16.67;100.00;101140.84;5051124;28;20037;-75
2023/07/26 08:57:09;;;;;;;24.92;17.83;;;;;;;16.72;100.00;101137.03;5052419;28;20029;-75
2023/07/26 08:59:35;;;;;;;26.10;18.45;;;;;;;16.81;100.00;101132.19;5052327;28;20028;-75
2023/07/26 09:02:03;;;;;;;23.90;17.55;;;;;;;16.81;97.76;101137.75;5052298;28;20464;-76
2023/07/26 09:04:30;;;;;;;23.17;16.73;;;;;;;17.00;97.20;101131.69;5052163;28;20104;-76
2023/07/26 09:06:55;;;;;;;23.13;16.15;;;;;;;17.20;96.10;101122.81;5052140;28;20082;-76
2023/07/26 09:09:21;;;;;;;23.33;16.13;;;;;;;17.35;95.93;101126.94;5052151;28;20024;-75
2023/07/26 09:11:51;;;;;;;23.02;16.60;;;;;;;17.45;94.43;101129.28;5052197;28;20311;-75
2023/07/26 09:14:17;;;;;;;22.42;16.65;;;;;;;17.75;93.91;101117.91;5052239;28;20029;-76
2023/07/26 09:16:43;;;;;;;23.10;16.00;;;;;;;18.11;90.97;101121.06;5051984;28;20496;-75
2023/07/26 09:19:09;;;;;;;21.67;14.45;;;;;;;18.44;83.45;101120.91;5051877;28;20127;-75
2023/07/26 09:21:35;;;;;;;20.40;13.13;;;;;;;18.65;77.49;101114.31;5051927;28;20025;-75
2023/07/26 09:24:03;;;;;;;21.10;12.77;;;;;;;18.79;78.45;101119.50;5051878;28;20453;-77
2023/07/26 09:26:36;;;;;;;20.15;13.50;;;;;;;18.80;77.65;101115.53;5050433;28;20432;-76
2023/07/26 09:29:08;;;;;;;19.42;13.35;;;;;;;18.74;77.34;101120.59;5051472;28;20051;-75
2023/07/26 09:31:33;;;;;;;22.63;14.23;;;;;;;18.40;78.37;101112.38;5051509;28;20485;-76
2023/07/26 09:34:06;;;;;;;20.75;14.07;;;;;;;18.50;81.44;101102.69;5051635;28;20029;-76
2023/07/26 09:36:47;;;;;;;21.17;13.93;;;;;;;18.84;78.51;101108.88;5051597;28;20122;-75
2023/07/26 09:39:14;;;;;;;19.90;12.45;;;;;;;18.94;74.40;101115.16;5050084;28;20044;-75
2023/07/26 09:41:40;;;;;;;20.45;12.98;;;;;;;18.92;73.74;101109.06;5050164;28;20028;-75
2023/07/26 09:44:08;;;;;;;21.70;13.70;;;;;;;19.00;75.90;101106.16;5051356;28;20029;-75
2023/07/26 09:46:53;;;;;;;19.98;13.20;;;;;;;19.06;76.62;101112.31;5051459;28;20037;-75
2023/07/26 09:49:26;;;;;;;22.33;13.43;;;;;;;18.80;73.64;101110.75;5051188;28;20025;-75
2023/07/26 09:51:57;;;;;;;20.67;13.25;;;;;;;18.54;77.20;101112.00;5049775;28;20036;-75
2023/07/26 09:54:25;;;;;;;19.13;12.52;;;;;;;18.15;75.70;101125.59;5051413;28;20036;-75
2023/07/26 09:56:54;;;;;;;18.70;11.90;;;;;;;17.76;77.55;101134.34;5051546;28;20033;-75
2023/07/26 09:59:23;;;;;;;20.75;12.45;;;;;;;17.49;81.92;101135.00;5049825;28;20445;-75
2023/07/26 10:01:51;;;;;;;19.88;11.38;;;;;;;17.25;79.46;101123.41;5051422;28;20421;-74
2023/07/26 10:04:22;;;;;;;19.63;12.25;;;;;;;17.14;81.61;101133.38;5051416;28;20059;-74
2023/07/26 10:06:49;;;;;;;18.67;11.65;;;;;;;17.08;81.74;101129.97;5051785;28;20036;-74
2023/07/26 10:09:15;;;;;;;19.55;12.57;;;;;;;17.06;82.92;101134.28;5051399;28;20045;-74
2023/07/26 10:11:42;;;;;;;19.02;12.27;;;;;;;17.06;85.05;101125.91;5050015;28;20033;-74
2023/07/26 10:14:12;;;;;;;19.23;12.43;;;;;;;17.17;85.50;101118.72;5051261;28;20051;-74
2023/07/26 10:16:39;;;;;;;21.27;13.30;;;;;;;17.30;85.58;101122.38;5051267;28;20047;-75
2023/07/26 10:19:06;;;;;;;20.38;13.68;;;;;;;17.53;86.25;101116.34;5051101;28;20029;-74
2023/07/26 10:21:34;;;;;;;20.88;13.68;;;;;;;17.73;84.90;101117.44;5051187;28;20029;-74
2023/07/26 10:24:01;;;;;;;20.83;13.40;;;;;;;17.83;87.20;101118.94;5051077;28;20495;-75
2023/07/26 10:26:30;;;;;;;19.73;12.68;;;;;;;17.78;85.40;101122.78;5051010;28;20056;-75
2023/07/26 10:28:59;;;;;;;21.88;13.85;;;;;;;17.65;86.89;101119.16;5049521;28;20048;-75
2023/07/26 10:31:25;;;;;;;21.08;14.25;;;;;;;17.56;88.47;101126.84;5050979;28;20102;-74
2023/07/26 10:33:53;;;;;;;20.23;13.50;;;;;;;17.27;88.41;101126.69;5051015;28;20031;-73
2023/07/26 10:36:18;;;;;;;21.08;14.35;;;;;;;17.12;90.92;101127.31;5050918;28;20112;-73
2023/07/26 10:38:48;;;;;;;20.85;13.85;;;;;;;17.04;91.52;101131.00;5050981;28;20035;-72
2023/07/26 10:41:29;;;;;;;20.40;13.55;;;;;;;16.92;89.21;101118.59;5051158;28;20096;-72
2023/07/26 10:44:08;;;;;;;18.38;12.02;;;;;;;16.87;85.63;101123.56;5051056;28;20033;-72
2023/07/26 10:46:54;;;;;;;18.92;12.55;;;;;;;16.89;87.19;101121.25;5051093;28;20037;-72
2023/07/26 10:49:33;;;;;;;18.63;12.20;;;;;;;16.92;85.57;101121.38;5050748;28;20207;-73
2023/07/26 10:52:03;;;;;;;20.42;11.60;;;;;;;16.98;87.83;101128.44;5050715;28;20133;-73
2023/07/26 10:54:46;;;;;;;19.02;12.00;;;;;;;17.14;87.76;101117.41;5050758;28;20044;-73
2023/07/26 10:57:26;;;;;;;20.17;12.23;;;;;;;17.46;86.42;101116.94;5050982;28;20025;-73
2023/07/26 10:59:59;;;;;;;18.90;11.90;;;;;;;17.72;85.23;101121.38;5050788;28;20032;-73
2023/07/26 11:02:37;;;;;;;20.48;11.80;;;;;;;17.98;86.01;101112.69;5050609;28;20094;-73
2023/07/26 11:05:05;;;;;;;19.13;12.38;;;;;;;18.27;86.30;101112.75;5054605;28;20040;-73